Time;durP1;ratioP1;P1;durP2;ratioP2;P2;SDS_P1;SDS_P2;PMS_P1;PMS_P2;Temp;Humidity;BMP_temperature;BMP_pressure;BME280_temperature;BME280_humidity;BME280_pressure;Samples;Min_cycle;Max_cycle;Signal;HPM_P1;HPM_P2
2022/04/16 00:01:24;;;;;;;0.50;0.50;;;6.70;99.90;;;;;;4975216;28;20116;-83
2022/04/16 00:03:50;;;;;;;0.50;0.50;;;6.70;99.90;;;;;;4967792;28;20050;-82
2022/04/16 00:06:16;;;;;;;0.50;0.50;;;6.50;99.90;;;;;;4958936;28;20150;-82
2022/04/16 00:08:48;;;;;;;0.30;0.30;;;6.40;99.90;;;;;;4961286;28;20081;-82
2022/04/16 00:11:14;;;;;;;0.60;0.60;;;6.40;99.90;;;;;;4936649;29;20043;-83
2022/04/16 00:13:40;;;;;;;0.60;0.60;;;6.20;99.90;;;;;;4937514;28;20096;-82
2022/04/16 00:16:06;;;;;;;0.50;0.50;;;6.10;99.90;;;;;;4936048;28;20066;-83
2022/04/16 00:18:32;;;;;;;0.52;0.52;;;6.00;99.90;;;;;;4956620;28;20038;-82
2022/04/16 00:20:58;;;;;;;0.40;0.40;;;6.70;99.90;;;;;;4966163;28;20038;-81
2022/04/16 00:23:25;;;;;;;0.60;0.60;;;5.90;99.90;;;;;;4936619;29;20031;-80
2022/04/16 00:25:53;;;;;;;0.60;0.60;;;5.80;99.90;;;;;;4954711;28;20080;-82
2022/04/16 00:28:19;;;;;;;0.50;0.50;;;5.70;99.90;;;;;;4939271;28;20059;-83
2022/04/16 00:30:45;;;;;;;0.50;0.50;;;5.80;99.90;;;;;;4972343;28;20050;-83
2022/04/16 00:33:14;;;;;;;0.70;0.70;;;5.50;99.90;;;;;;4920915;29;20031;-81
2022/04/16 00:35:42;;;;;;;0.70;0.70;;;5.50;99.90;;;;;;4963251;28;20565;-82
2022/04/16 00:38:08;;;;;;;0.70;0.70;;;6.30;99.90;;;;;;4986738;28;20106;-83
2022/04/16 00:40:35;;;;;;;0.70;0.70;;;5.40;99.90;;;;;;4953310;28;20055;-85
2022/04/16 00:43:00;;;;;;;;;;;5.40;99.90;;;;;;4951492;28;20082;-83
2022/04/16 00:45:32;;;;;;;0.50;0.50;;;5.40;99.90;;;;;;4932722;29;20445;-82
2022/04/16 00:47:59;;;;;;;0.50;0.50;;;5.40;99.90;;;;;;4964754;28;20043;-83
2022/04/16 00:50:25;;;;;;;0.52;0.52;;;5.60;99.90;;;;;;4932603;29;20063;-81
2022/04/16 00:52:51;;;;;;;;;;;5.50;99.90;;;;;;4954455;28;20063;-83
2022/04/16 00:55:17;;;;;;;0.50;0.50;;;5.50;99.90;;;;;;4941381;29;19941;-82
2022/04/16 00:57:43;;;;;;;0.40;0.40;;;5.50;99.90;;;;;;4963236;28;20042;-81
2022/04/16 01:00:12;;;;;;;0.47;0.47;;;5.50;99.90;;;;;;4946921;28;20031;-81
2022/04/16 01:02:40;;;;;;;0.60;0.60;;;5.50;99.90;;;;;;4940473;28;20036;-83
2022/04/16 01:05:07;;;;;;;0.22;0.22;;;4.80;99.90;;;;;;4942843;28;20131;-83
2022/04/16 01:07:35;;;;;;;0.50;0.50;;;5.50;99.90;;;;;;4957785;28;20039;-82
2022/04/16 01:10:00;;;;;;;0.57;0.57;;;5.50;99.90;;;;;;4945620;28;20043;-81
2022/04/16 01:12:26;;;;;;;0.57;0.57;;;6.50;99.90;;;;;;4945819;28;20076;-82
2022/04/16 01:14:53;;;;;;;0.60;0.60;;;5.50;99.90;;;;;;4955288;28;20046;-83
2022/04/16 01:17:19;;;;;;;0.60;0.60;;;5.60;99.90;;;;;;4941695;28;20100;-83
2022/04/16 01:19:44;;;;;;;0.60;0.60;;;6.40;99.90;;;;;;4949235;28;20042;-82
2022/04/16 01:22:14;;;;;;;0.60;0.60;;;5.90;99.90;;;;;;4939220;29;20100;-81
2022/04/16 01:24:43;;;;;;;0.50;0.50;;;5.90;99.90;;;;;;4960536;28;20174;-83
2022/04/16 01:27:10;;;;;;;0.55;0.55;;;6.00;99.90;;;;;;4932736;28;20143;-81
2022/04/16 01:29:37;;;;;;;0.50;0.50;;;6.20;99.90;;;;;;4957720;28;20042;-83
2022/04/16 01:32:06;;;;;;;0.65;0.65;;;6.00;99.90;;;;;;4957591;28;20043;-84
2022/04/16 01:34:32;;;;;;;0.60;0.60;;;6.10;99.90;;;;;;4973841;28;20377;-81
2022/04/16 01:37:02;;;;;;;1.13;1.10;;;6.00;99.90;;;;;;4942511;28;20165;-83
2022/04/16 01:39:28;;;;;;;0.45;0.45;;;6.00;99.90;;;;;;4943626;28;20380;-83
2022/04/16 01:41:54;;;;;;;0.57;0.57;;;6.10;99.90;;;;;;4941693;28;20133;-83
2022/04/16 01:44:21;;;;;;;0.45;0.45;;;6.00;99.90;;;;;;4949237;28;20471;-83
2022/04/16 01:46:46;;;;;;;0.60;0.60;;;5.90;99.90;;;;;;4958495;28;20496;-82
2022/04/16 01:49:13;;;;;;;0.60;0.60;;;5.80;99.90;;;;;;4958064;28;20043;-82
2022/04/16 01:51:38;;;;;;;;;;;5.80;99.90;;;;;;4970777;28;20063;-83
2022/04/16 01:54:05;;;;;;;0.55;0.55;;;5.70;99.90;;;;;;4938411;29;19972;-83
2022/04/16 01:56:30;;;;;;;0.50;0.50;;;5.60;99.90;;;;;;4955544;29;20459;-83
2022/04/16 01:58:56;;;;;;;0.60;0.60;;;5.60;99.90;;;;;;4975705;28;20047;-82
2022/04/16 02:01:22;;;;;;;0.60;0.60;;;5.50;99.90;;;;;;4952679;28;20050;-82
2022/04/16 02:03:48;;;;;;;0.50;0.50;;;5.70;99.90;;;;;;4945263;28;20047;-82
2022/04/16 02:06:14;;;;;;;;;;;5.40;99.90;;;;;;4977884;28;20047;-83
2022/04/16 02:08:40;;;;;;;0.57;0.57;;;6.30;99.90;;;;;;4950377;28;20005;-82
2022/04/16 02:11:06;;;;;;;0.63;0.63;;;5.20;99.90;;;;;;4963978;28;20046;-82
2022/04/16 02:13:32;;;;;;;0.55;0.55;;;5.20;99.90;;;;;;4961208;28;20047;-83
2022/04/16 02:15:57;;;;;;;0.60;0.60;;;5.10;99.90;;;;;;4933171;28;20498;-79
2022/04/16 02:18:23;;;;;;;0.60;0.60;;;5.40;99.90;;;;;;4924814;29;20043;-81
2022/04/16 02:20:50;;;;;;;0.60;0.60;;;5.30;99.90;;;;;;4964027;28;20366;-83
2022/04/16 02:23:16;;;;;;;0.57;0.57;;;5.10;99.90;;;;;;4937324;28;20164;-81
2022/04/16 02:25:43;;;;;;;0.70;0.70;;;6.60;99.90;;;;;;4960465;28;20396;-82
2022/04/16 02:28:10;;;;;;;0.52;0.52;;;5.30;99.90;;;;;;4925435;28;20188;-82
2022/04/16 02:30:37;;;;;;;0.50;0.50;;;5.40;99.90;;;;;;4952605;29;20070;-83
2022/04/16 02:33:06;;;;;;;0.50;0.50;;;5.60;99.90;;;;;;4948713;28;20085;-81
2022/04/16 02:35:35;;;;;;;0.50;0.50;;;5.70;99.90;;;;;;4956682;28;20043;-83
2022/04/16 02:38:02;;;;;;;0.55;0.55;;;5.70;99.90;;;;;;4990007;28;20117;-81
2022/04/16 02:40:28;;;;;;;0.55;0.55;;;5.90;99.90;;;;;;4957330;28;20035;-81
2022/04/16 02:42:53;;;;;;;0.60;0.60;;;6.10;99.90;;;;;;4958022;28;20441;-82
2022/04/16 02:48:04;;;;;;;0.50;0.50;;;6.50;99.90;;;;;;4979111;28;20137;-81
2022/04/16 02:50:31;;;;;;;0.50;0.50;;;6.50;99.90;;;;;;4949349;28;20043;-81
2022/04/16 02:52:58;;;;;;;0.60;0.60;;;6.50;99.90;;;;;;4940565;28;20059;-81
2022/04/16 02:55:24;;;;;;;0.40;0.40;;;6.60;99.90;;;;;;4966972;28;20082;-82
2022/04/16 02:57:51;;;;;;;0.50;0.50;;;6.70;99.90;;;;;;4958075;28;20034;-82
2022/04/16 03:00:20;;;;;;;0.50;0.50;;;6.80;99.90;;;;;;4956641;28;20659;-82
2022/04/16 03:02:47;;;;;;;0.70;0.70;;;6.90;99.90;;;;;;4972015;28;20515;-82
2022/04/16 03:05:13;;;;;;;0.50;0.50;;;7.00;99.90;;;;;;4946287;28;20043;-79
2022/04/16 03:07:39;;;;;;;;;;;7.10;99.90;;;;;;4951697;28;20047;-83
2022/04/16 03:10:06;;;;;;;0.52;0.52;;;7.10;99.90;;;;;;4968659;28;19967;-81
2022/04/16 03:12:51;;;;;;;0.50;0.50;;;7.20;99.90;;;;;;4925761;28;20046;-83
2022/04/16 03:18:03;;;;;;;0.40;0.40;;;7.30;99.90;;;;;;4954210;28;20441;-82
2022/04/16 03:20:30;;;;;;;0.50;0.50;;;7.30;99.90;;;;;;4955251;28;20121;-81
2022/04/16 03:22:57;;;;;;;0.70;0.70;;;7.30;99.90;;;;;;4956357;28;20145;-82
2022/04/16 03:25:23;;;;;;;0.43;0.43;;;7.40;99.90;;;;;;4962870;28;20127;-81
2022/04/16 03:27:49;;;;;;;;;;;7.40;99.90;;;;;;4953083;28;20043;-81
2022/04/16 03:30:15;;;;;;;0.52;0.52;;;7.40;99.90;;;;;;4971751;28;19918;-80
2022/04/16 03:32:41;;;;;;;;;;;8.50;99.90;;;;;;4956318;28;20043;-82
2022/04/16 03:35:08;;;;;;;0.65;0.65;;;7.30;99.90;;;;;;4955242;28;20238;-81
2022/04/16 03:37:35;;;;;;;0.98;0.98;;;7.50;99.90;;;;;;4971386;28;20047;-83
2022/04/16 03:40:02;;;;;;;0.50;0.50;;;7.40;99.90;;;;;;4964811;28;20099;-82
2022/04/16 03:42:28;;;;;;;0.30;0.30;;;7.60;99.90;;;;;;4961629;28;20039;-81
2022/04/16 03:44:53;;;;;;;0.50;0.50;;;7.50;99.90;;;;;;4938804;28;20043;-81
2022/04/16 03:47:19;;;;;;;0.30;0.30;;;7.40;99.90;;;;;;4946579;28;20156;-82
2022/04/16 03:49:45;;;;;;;0.50;0.50;;;7.40;99.90;;;;;;4989788;28;20047;-81
2022/04/16 03:52:11;;;;;;;0.40;0.40;;;7.40;99.90;;;;;;4974145;28;20065;-80
2022/04/16 04:00:08;;;;;;;1.80;1.65;;;7.60;99.90;;;;;;4971048;28;20408;-81
2022/04/16 04:02:36;;;;;;;0.68;0.68;;;7.30;99.90;;;;;;4939528;28;20046;-86
2022/04/16 04:05:04;;;;;;;0.63;0.63;;;7.30;99.90;;;;;;4970491;28;20093;-80
2022/04/16 04:07:30;;;;;;;0.43;0.43;;;7.30;99.90;;;;;;4970676;28;20463;-81
2022/04/16 04:09:55;;;;;;;1.15;1.15;;;7.20;99.90;;;;;;4940620;28;20043;-85
2022/04/16 04:12:21;;;;;;;3.50;3.17;;;7.20;99.90;;;;;;4921738;28;20043;-82
2022/04/16 04:14:47;;;;;;;1.10;1.00;;;7.20;99.90;;;;;;4929708;28;20055;-83
2022/04/16 04:17:15;;;;;;;1.73;1.63;;;7.20;99.90;;;;;;4940494;28;20157;-81
2022/04/16 04:19:46;;;;;;;0.63;0.63;;;7.20;99.90;;;;;;4972951;28;20788;-81
2022/04/16 04:22:15;;;;;;;1.17;0.88;;;7.10;99.90;;;;;;4953897;28;20051;-83
2022/04/16 04:24:41;;;;;;;0.93;0.93;;;7.10;99.90;;;;;;4954668;28;20120;-82
2022/04/16 04:27:08;;;;;;;0.52;0.52;;;7.10;99.90;;;;;;4952647;28;20185;-83
2022/04/16 04:29:35;;;;;;;0.60;0.60;;;7.10;99.90;;;;;;4953138;28;20039;-81
2022/04/16 04:32:00;;;;;;;2.97;1.17;;;7.10;99.90;;;;;;4937729;28;20079;-83
2022/04/16 04:34:26;;;;;;;0.50;0.50;;;7.10;99.90;;;;;;4937053;28;20049;-81
2022/04/16 04:36:52;;;;;;;1.50;1.02;;;7.10;99.90;;;;;;4940114;28;20081;-83
2022/04/16 04:39:18;;;;;;;0.60;0.60;;;7.10;99.90;;;;;;4939351;28;20484;-82
2022/04/16 04:41:44;;;;;;;0.50;0.50;;;7.10;99.90;;;;;;4952446;29;20118;-84
2022/04/16 04:44:14;;;;;;;0.60;0.60;;;7.00;99.90;;;;;;4931412;28;20109;-82
2022/04/16 04:46:41;;;;;;;1.08;1.08;;;7.00;99.90;;;;;;4954947;28;20099;-82
2022/04/16 04:49:13;;;;;;;0.50;0.50;;;7.00;99.90;;;;;;4939379;28;20127;-83
2022/04/16 04:51:39;;;;;;;0.50;0.50;;;7.00;99.90;;;;;;4935612;29;20043;-82
2022/04/16 04:54:06;;;;;;;0.60;0.60;;;7.00;99.90;;;;;;4942905;28;20054;-83
2022/04/16 04:56:32;;;;;;;0.80;0.80;;;7.00;99.90;;;;;;4953947;29;20141;-83
2022/04/16 04:58:58;;;;;;;0.60;0.60;;;7.00;99.90;;;;;;4970171;28;20034;-83
2022/04/16 05:01:24;;;;;;;0.40;0.40;;;7.90;99.90;;;;;;4947931;28;20546;-85
2022/04/16 05:03:50;;;;;;;0.77;0.77;;;7.10;99.90;;;;;;4936086;28;20093;-85
2022/04/16 05:06:16;;;;;;;1.38;0.88;;;7.00;99.90;;;;;;4957317;28;20034;-84
2022/04/16 05:08:43;;;;;;;0.60;0.60;;;7.00;99.90;;;;;;4989511;28;20050;-85
2022/04/16 05:11:12;;;;;;;0.38;0.38;;;7.10;99.90;;;;;;4956436;28;20041;-84
2022/04/16 05:13:38;;;;;;;0.40;0.40;;;7.10;99.90;;;;;;5039724;28;20140;-85
2022/04/16 05:16:05;;;;;;;0.70;0.70;;;7.10;99.90;;;;;;4922920;28;20163;-83
2022/04/16 05:18:30;;;;;;;0.30;0.30;;;7.10;99.90;;;;;;4971614;28;20043;-84
2022/04/16 05:20:56;;;;;;;0.50;0.50;;;7.20;99.90;;;;;;4945883;28;20044;-87
2022/04/16 05:23:31;;;;;;;0.63;0.63;;;7.20;99.90;;;;;;4940948;28;20050;-84
2022/04/16 05:25:57;;;;;;;0.50;0.50;;;7.20;99.90;;;;;;4954678;28;20039;-83
2022/04/16 05:28:22;;;;;;;0.88;0.88;;;7.20;99.90;;;;;;4962520;28;20498;-83
2022/04/16 05:30:48;;;;;;;0.40;0.40;;;7.30;99.90;;;;;;4948603;28;20057;-83
2022/04/16 05:36:00;;;;;;;0.45;0.45;;;7.30;99.90;;;;;;4989599;28;20077;-83
2022/04/16 05:38:26;;;;;;;0.60;0.60;;;7.30;99.90;;;;;;4990809;28;20047;-82
2022/04/16 05:40:55;;;;;;;0.30;0.30;;;7.40;99.90;;;;;;4968743;28;20046;-82
2022/04/16 05:43:21;;;;;;;0.43;0.43;;;7.40;99.90;;;;;;4968797;28;20047;-83
2022/04/16 05:45:47;;;;;;;0.40;0.40;;;7.50;99.90;;;;;;4955264;28;20047;-84
2022/04/16 05:48:16;;;;;;;0.50;0.50;;;7.50;99.90;;;;;;4941097;28;20463;-82
2022/04/16 05:50:43;;;;;;;0.88;0.88;;;7.50;99.90;;;;;;5018810;28;20126;-84
2022/04/16 05:53:14;;;;;;;0.60;0.60;;;7.60;99.90;;;;;;4973307;28;20070;-83
2022/04/16 05:55:46;;;;;;;0.50;0.50;;;8.10;99.90;;;;;;4941178;28;20053;-83
2022/04/16 05:58:12;;;;;;;0.80;0.80;;;8.20;99.90;;;;;;4958416;28;20097;-82
2022/04/16 06:00:39;;;;;;;;;;;7.90;99.90;;;;;;4950711;28;20031;-81
2022/04/16 06:03:05;;;;;;;0.60;0.60;;;7.60;99.90;;;;;;4980739;28;20008;-82
2022/04/16 06:05:34;;;;;;;0.40;0.40;;;8.90;99.90;;;;;;4967098;28;20134;-82
2022/04/16 06:08:00;;;;;;;0.50;0.50;;;8.00;99.90;;;;;;4971477;28;20448;-83
2022/04/16 06:10:26;;;;;;;0.47;0.47;;;7.70;99.90;;;;;;4959402;28;20053;-84
2022/04/16 06:12:52;;;;;;;0.60;0.60;;;7.80;99.90;;;;;;4991191;28;20051;-84
2022/04/16 06:15:19;;;;;;;0.65;0.65;;;7.80;99.90;;;;;;4946124;28;20035;-83
2022/04/16 06:17:44;;;;;;;0.55;0.55;;;7.80;99.90;;;;;;4984756;28;20193;-82
2022/04/16 06:20:11;;;;;;;0.50;0.50;;;7.90;99.90;;;;;;4955849;28;20100;-81
2022/04/16 06:22:37;;;;;;;0.50;0.50;;;8.00;99.90;;;;;;4964550;28;20038;-81
2022/04/16 06:25:06;;;;;;;0.60;0.60;;;8.30;99.90;;;;;;4969723;28;20043;-83
2022/04/16 06:27:31;;;;;;;0.60;0.60;;;8.30;99.90;;;;;;4987798;28;20051;-83
2022/04/16 06:29:57;;;;;;;0.88;0.88;;;8.40;99.90;;;;;;4953685;28;20101;-81
2022/04/16 06:32:24;;;;;;;0.45;0.45;;;8.40;99.90;;;;;;4988936;28;20054;-84
2022/04/16 06:34:51;;;;;;;0.50;0.50;;;8.40;99.90;;;;;;4961034;28;20080;-81
2022/04/16 06:37:16;;;;;;;0.50;0.50;;;8.40;99.90;;;;;;4957479;28;20145;-81
2022/04/16 06:39:42;;;;;;;0.55;0.55;;;8.50;99.90;;;;;;4953974;28;20078;-83
2022/04/16 06:42:08;;;;;;;0.40;0.40;;;9.20;99.90;;;;;;4940765;28;20046;-83
2022/04/16 06:44:35;;;;;;;0.52;0.52;;;8.50;99.90;;;;;;4949355;29;20043;-80
2022/04/16 06:47:00;;;;;;;0.52;0.52;;;8.50;99.90;;;;;;4972264;28;20047;-81
2022/04/16 06:49:29;;;;;;;0.50;0.50;;;8.60;99.90;;;;;;4967245;28;20038;-83
2022/04/16 06:51:55;;;;;;;0.40;0.40;;;8.50;99.90;;;;;;4946164;28;20539;-83
2022/04/16 06:54:23;;;;;;;1.45;1.45;;;8.60;99.90;;;;;;4947794;28;20135;-81
2022/04/16 06:56:52;;;;;;;0.50;0.50;;;8.60;99.90;;;;;;4960645;28;20106;-83
2022/04/16 06:59:19;;;;;;;;;;;8.60;99.90;;;;;;4958158;28;20038;-83
2022/04/16 07:01:50;;;;;;;0.45;0.45;;;8.60;99.90;;;;;;4964620;28;19929;-82
2022/04/16 07:04:16;;;;;;;0.43;0.43;;;9.20;99.90;;;;;;4973888;28;20046;-85
2022/04/16 07:06:42;;;;;;;0.45;0.45;;;8.70;99.90;;;;;;4964447;28;20059;-83
2022/04/16 07:09:08;;;;;;;;;;;8.60;99.90;;;;;;4937165;28;20043;-83
2022/04/16 07:11:34;;;;;;;0.50;0.50;;;8.60;99.90;;;;;;4956941;28;19925;-84
2022/04/16 07:13:59;;;;;;;0.40;0.40;;;8.60;99.90;;;;;;4953871;29;20154;-82
2022/04/16 07:16:25;;;;;;;0.40;0.40;;;8.70;99.90;;;;;;4951186;28;20096;-83
2022/04/16 07:18:51;;;;;;;0.60;0.60;;;8.70;99.90;;;;;;4948926;29;20050;-80
2022/04/16 07:21:18;;;;;;;0.50;0.50;;;8.80;99.90;;;;;;4947848;28;20492;-81
2022/04/16 07:23:43;;;;;;;0.60;0.60;;;8.80;99.90;;;;;;4956335;28;20391;-81
2022/04/16 07:26:09;;;;;;;0.65;0.65;;;8.80;99.90;;;;;;4936175;29;20118;-84
2022/04/16 07:28:35;;;;;;;1.08;0.50;;;8.80;99.90;;;;;;4954271;28;20049;-80
2022/04/16 07:31:01;;;;;;;0.28;0.28;;;8.80;99.90;;;;;;4966037;28;20047;-82
2022/04/16 07:33:29;;;;;;;0.40;0.40;;;8.80;99.90;;;;;;4956968;28;20097;-83
2022/04/16 07:35:56;;;;;;;0.40;0.40;;;8.80;99.90;;;;;;4947310;28;20051;-80
2022/04/16 07:38:22;;;;;;;;;;;8.90;99.90;;;;;;4966645;28;20077;-82
2022/04/16 07:40:49;;;;;;;0.60;0.60;;;8.80;99.90;;;;;;4943987;29;19926;-80
2022/04/16 07:43:15;;;;;;;0.77;0.77;;;8.80;99.90;;;;;;4955087;28;20404;-82
2022/04/16 07:45:42;;;;;;;0.60;0.60;;;9.10;99.90;;;;;;4947191;28;20051;-80
2022/04/16 07:48:08;;;;;;;0.70;0.70;;;8.80;99.90;;;;;;4969474;28;20043;-78
2022/04/16 07:50:33;;;;;;;1.27;1.27;;;8.80;99.90;;;;;;4976374;28;20043;-86
2022/04/16 07:53:00;;;;;;;1.95;1.33;;;8.90;99.90;;;;;;4942760;28;20054;-81
2022/04/16 07:55:28;;;;;;;0.25;0.25;;;8.90;99.90;;;;;;5036626;28;20047;-80
2022/04/16 07:57:55;;;;;;;0.40;0.40;;;9.00;99.90;;;;;;4952746;28;20125;-81
2022/04/16 08:00:21;;;;;;;0.30;0.30;;;9.10;99.90;;;;;;4965374;28;20043;-82
2022/04/16 08:02:55;;;;;;;0.60;0.60;;;9.10;99.90;;;;;;4952390;28;20066;-82
2022/04/16 08:05:21;;;;;;;0.40;0.40;;;9.20;99.90;;;;;;4970212;28;20046;-81
2022/04/16 08:07:47;;;;;;;0.40;0.40;;;9.30;99.90;;;;;;4933768;28;20039;-81
2022/04/16 08:10:13;;;;;;;0.40;0.40;;;9.30;99.90;;;;;;4957041;28;20069;-84
2022/04/16 08:12:39;;;;;;;0.40;0.40;;;9.30;99.90;;;;;;4981986;28;20030;-83
2022/04/16 08:15:06;;;;;;;0.47;0.47;;;9.40;99.90;;;;;;4955149;28;20096;-84
2022/04/16 08:17:32;;;;;;;0.60;0.60;;;9.40;99.90;;;;;;4968966;28;20092;-80
2022/04/16 08:19:59;;;;;;;0.30;0.30;;;9.50;99.90;;;;;;4950318;28;20066;-83
2022/04/16 08:22:28;;;;;;;0.30;0.30;;;9.50;99.90;;;;;;4954043;28;20628;-82
2022/04/16 08:25:43;;;;;;;0.57;0.57;;;9.60;99.90;;;;;;4968889;28;20043;-81
2022/04/16 08:27:42;;;;;;;0.50;0.50;;;9.60;99.90;;;;;;4972866;28;20389;-84
2022/04/16 08:30:10;;;;;;;1.05;1.05;;;9.60;99.90;;;;;;4950238;28;20046;-84
2022/04/16 08:32:37;;;;;;;0.52;0.52;;;9.70;99.90;;;;;;4954622;28;20467;-80
2022/04/16 08:35:04;;;;;;;0.45;0.45;;;9.80;99.90;;;;;;4980745;28;20054;-82
2022/04/16 08:37:31;;;;;;;0.30;0.30;;;9.90;99.90;;;;;;4953045;28;20050;-81
2022/04/16 08:39:56;;;;;;;;;;;9.90;99.90;;;;;;4955068;28;20049;-83
2022/04/16 08:42:23;;;;;;;0.30;0.30;;;9.90;99.90;;;;;;4954708;28;20002;-81
2022/04/16 08:44:48;;;;;;;;;;;9.90;99.90;;;;;;4966038;28;20140;-84
2022/04/16 08:47:14;;;;;;;0.40;0.40;;;10.00;99.90;;;;;;4997894;28;20265;-81
2022/04/16 08:49:41;;;;;;;;;;;10.10;99.90;;;;;;4951062;29;20109;-83
2022/04/16 08:52:08;;;;;;;0.50;0.50;;;10.20;99.90;;;;;;4982772;28;19926;-80
2022/04/16 08:54:39;;;;;;;0.30;0.30;;;10.20;99.90;;;;;;4957271;28;20093;-81
2022/04/16 08:57:05;;;;;;;0.40;0.40;;;10.30;99.90;;;;;;4980279;28;20374;-80
2022/04/16 08:59:31;;;;;;;0.40;0.40;;;10.30;99.90;;;;;;4969198;28;20077;-78
2022/04/16 09:01:58;;;;;;;0.40;0.40;;;10.40;99.90;;;;;;4967110;28;20039;-81
2022/04/16 09:04:31;;;;;;;0.40;0.40;;;10.40;99.90;;;;;;4954536;28;20039;-80
2022/04/16 09:07:01;;;;;;;0.30;0.30;;;10.50;99.90;;;;;;4942993;28;20054;-81
2022/04/16 09:09:30;;;;;;;0.40;0.40;;;10.60;99.90;;;;;;4953434;28;20038;-83
2022/04/16 09:12:02;;;;;;;0.40;0.40;;;10.70;99.90;;;;;;4958978;28;20050;-82
2022/04/16 09:14:36;;;;;;;0.30;0.30;;;10.70;99.90;;;;;;4951028;28;20059;-83
2022/04/16 09:17:07;;;;;;;0.75;0.75;;;10.80;99.90;;;;;;4969751;28;20058;-80
2022/04/16 09:19:32;;;;;;;0.50;0.50;;;10.80;99.90;;;;;;4974182;28;20091;-81
2022/04/16 09:21:58;;;;;;;0.35;0.35;;;10.90;99.90;;;;;;5010004;28;20145;-83
2022/04/16 09:24:24;;;;;;;0.43;0.43;;;11.00;99.90;;;;;;4956744;28;20051;-83
2022/04/16 09:26:50;;;;;;;0.50;0.50;;;11.10;99.90;;;;;;4962388;28;20043;-84
2022/04/16 09:29:18;;;;;;;0.43;0.43;;;11.10;99.90;;;;;;4985986;28;20050;-83
2022/04/16 09:31:51;;;;;;;0.40;0.40;;;11.30;99.90;;;;;;4932022;28;20055;-85
2022/04/16 09:34:28;;;;;;;0.50;0.50;;;11.40;99.90;;;;;;5008399;28;20096;-86
2022/04/16 09:36:54;;;;;;;0.40;0.40;;;11.40;99.90;;;;;;4952734;28;20443;-83
2022/04/16 09:39:23;;;;;;;;;;;11.60;97.90;;;;;;4934679;28;20118;-85
2022/04/16 09:41:51;;;;;;;0.30;0.30;;;11.50;99.00;;;;;;4957769;28;19969;-84
2022/04/16 09:44:20;;;;;;;0.30;0.30;;;11.60;99.90;;;;;;4967752;28;20043;-86
2022/04/16 09:46:46;;;;;;;0.40;0.40;;;11.60;99.90;;;;;;4956495;28;20345;-81
2022/04/16 09:49:14;;;;;;;0.40;0.40;;;11.60;96.20;;;;;;4956316;28;20042;-81
2022/04/16 09:51:46;;;;;;;0.40;0.40;;;11.70;99.90;;;;;;4974441;28;20056;-85
2022/04/16 09:54:13;;;;;;;0.30;0.30;;;11.80;99.90;;;;;;4955503;28;20130;-82
2022/04/16 09:56:46;;;;;;;0.30;0.30;;;11.90;99.90;;;;;;4938572;28;20053;-82
2022/04/16 09:59:13;;;;;;;0.40;0.40;;;12.00;99.90;;;;;;4962979;28;20053;-81
2022/04/16 10:01:47;;;;;;;0.40;0.40;;;12.00;99.90;;;;;;4968215;28;20125;-82
2022/04/16 10:04:16;;;;;;;0.40;0.40;;;12.00;99.90;;;;;;4951809;28;20042;-81
2022/04/16 10:06:41;;;;;;;0.40;0.40;;;12.10;99.90;;;;;;4991848;28;20054;-85
2022/04/16 10:09:13;;;;;;;0.25;0.25;;;12.10;81.40;;;;;;4952433;28;20388;-86
2022/04/16 10:14:44;;;;;;;;;;;12.10;92.60;;;;;;4975821;28;20530;-83
2022/04/16 10:17:32;;;;;;;0.30;0.30;;;12.20;99.90;;;;;;4959019;28;19918;-84
2022/04/16 10:20:09;;;;;;;0.38;0.38;;;12.30;98.70;;;;;;4949162;28;20054;-85
2022/04/16 10:22:51;;;;;;;0.40;0.40;;;12.30;74.90;;;;;;4969509;28;20043;-86
2022/04/16 10:25:34;;;;;;;0.30;0.30;;;12.20;89.00;;;;;;4975984;28;20046;-84
2022/04/16 10:28:20;;;;;;;0.40;0.40;;;12.30;99.90;;;;;;4938859;28;20555;-85
2022/04/16 10:30:54;;;;;;;0.35;0.35;;;12.40;90.50;;;;;;4952102;28;20051;-85
2022/04/16 10:33:27;;;;;;;0.30;0.30;;;12.40;88.00;;;;;;4942176;28;20434;-86
2022/04/16 10:36:00;;;;;;;0.43;0.43;;;12.40;86.90;;;;;;4975594;28;20047;-82
2022/04/16 10:38:33;;;;;;;0.43;0.43;;;12.40;99.90;;;;;;4971410;28;20038;-83
2022/04/16 10:41:01;;;;;;;0.40;0.40;;;12.50;99.00;;;;;;4952634;28;20043;-84
2022/04/16 10:43:32;;;;;;;0.40;0.40;;;12.60;87.70;;;;;;4958204;28;20488;-84
2022/04/16 10:46:24;;;;;;;0.77;0.45;;;12.60;87.20;;;;;;4967385;28;20545;-83
2022/04/16 10:48:50;;;;;;;0.40;0.40;;;12.60;84.20;;;;;;4957847;28;20114;-84
2022/04/16 10:51:23;;;;;;;0.30;0.30;;;12.70;92.80;;;;;;5015601;28;20434;-83
2022/04/16 10:53:50;;;;;;;0.40;0.40;;;12.80;90.00;;;;;;4950100;28;20058;-84
2022/04/16 10:56:45;;;;;;;0.30;0.30;;;13.00;95.90;;;;;;4937835;28;20058;-84
2022/04/16 10:59:11;;;;;;;0.93;0.93;;;13.10;98.80;;;;;;4955858;28;20358;-87
2022/04/16 11:01:38;;;;;;;0.40;0.40;;;13.00;75.10;;;;;;4964555;28;20046;-86
2022/04/16 11:04:13;;;;;;;0.40;0.40;;;13.20;93.40;;;;;;4929760;28;20047;-81
2022/04/16 11:06:48;;;;;;;0.30;0.30;;;13.30;94.30;;;;;;4959177;28;20519;-84
2022/04/16 11:09:17;;;;;;;0.55;0.50;;;13.40;81.60;;;;;;4947918;28;20138;-80
2022/04/16 11:11:43;;;;;;;0.38;0.38;;;13.40;91.90;;;;;;4957040;28;20118;-88
2022/04/16 11:14:10;;;;;;;0.40;0.40;;;13.40;83.80;;;;;;4944063;28;20137;-86
2022/04/16 11:16:43;;;;;;;0.40;0.40;;;13.50;77.40;;;;;;4942902;28;20130;-87
2022/04/16 11:19:13;;;;;;;0.40;0.40;;;13.50;84.60;;;;;;4953978;28;20480;-84
2022/04/16 11:21:39;;;;;;;0.43;0.43;;;13.60;86.10;;;;;;4974079;28;20053;-86
2022/04/16 11:24:06;;;;;;;0.68;0.68;;;13.80;82.80;;;;;;4943886;28;20042;-85
2022/04/16 11:34:56;;;;;;;0.40;0.40;;;13.90;89.40;;;;;;4961987;28;20049;-84
2022/04/16 11:37:22;;;;;;;0.40;0.40;;;13.90;80.10;;;;;;4953461;28;20077;-83
2022/04/16 11:40:05;;;;;;;;;;;13.90;82.30;;;;;;4942406;28;20068;-82
2022/04/16 11:42:31;;;;;;;0.35;0.35;;;14.00;83.30;;;;;;4939852;28;19929;-86
2022/04/16 11:44:58;;;;;;;0.20;0.20;;;14.10;88.20;;;;;;4973332;28;20068;-87
2022/04/16 11:47:28;;;;;;;0.20;0.20;;;14.10;85.20;;;;;;4969039;28;20039;-84
2022/04/16 11:50:03;;;;;;;0.30;0.30;;;14.20;87.40;;;;;;4962992;28;20198;-84
2022/04/16 11:52:31;;;;;;;0.30;0.30;;;14.30;83.40;;;;;;4945315;28;20082;-86
2022/04/16 11:55:07;;;;;;;0.40;0.40;;;14.40;71.40;;;;;;4940395;28;20134;-83
2022/04/16 11:57:34;;;;;;;0.68;0.43;;;14.50;78.50;;;;;;4965198;28;20085;-86
2022/04/16 12:00:07;;;;;;;0.40;0.40;;;14.50;83.10;;;;;;4937285;28;20082;-85
2022/04/16 12:02:35;;;;;;;0.40;0.40;;;14.60;65.20;;;;;;4985528;28;20027;-82
2022/04/16 12:05:08;;;;;;;0.30;0.30;;;14.60;62.50;;;;;;4953957;28;20050;-85
2022/04/16 12:07:34;;;;;;;0.40;0.40;;;14.60;72.50;;;;;;4976644;28;20047;-80
2022/04/16 12:10:05;;;;;;;0.40;0.40;;;14.60;70.40;;;;;;4980473;28;20078;-83
2022/04/16 12:12:46;;;;;;;0.30;0.30;;;14.70;70.00;;;;;;4963088;28;20047;-83
2022/04/16 12:15:27;;;;;;;0.40;0.40;;;14.80;69.70;;;;;;4956878;28;20071;-86
2022/04/16 12:17:55;;;;;;;0.43;0.43;;;14.80;62.20;;;;;;4984030;28;20507;-83
2022/04/16 12:20:21;;;;;;;0.50;0.50;;;14.90;79.40;;;;;;4944304;28;20039;-85
2022/04/16 12:22:51;;;;;;;0.30;0.30;;;14.90;68.70;;;;;;4956101;28;20047;-85
2022/04/16 12:25:20;;;;;;;0.40;0.40;;;15.00;70.70;;;;;;4961378;28;20050;-88
2022/04/16 12:27:54;;;;;;;0.30;0.30;;;15.10;68.50;;;;;;4972758;28;20046;-85
2022/04/16 12:30:24;;;;;;;0.30;0.30;;;15.20;68.70;;;;;;4941912;28;20043;-87
2022/04/16 12:32:59;;;;;;;0.30;0.30;;;15.30;62.20;;;;;;4954353;28;20043;-87
2022/04/16 12:35:28;;;;;;;0.40;0.40;;;15.30;69.30;;;;;;4946995;28;20129;-81
2022/04/16 12:37:55;;;;;;;0.40;0.40;;;15.60;68.60;;;;;;4941218;28;20160;-82
2022/04/16 12:40:22;;;;;;;0.32;0.32;;;15.80;70.00;;;;;;4949625;28;20480;-83
2022/04/16 12:42:58;;;;;;;2.95;0.60;;;15.80;66.90;;;;;;4927037;28;20042;-86
2022/04/16 12:45:30;;;;;;;0.40;0.40;;;16.00;67.00;;;;;;4956880;28;20201;-87
2022/04/16 12:47:57;;;;;;;0.40;0.40;;;16.00;69.10;;;;;;4972573;28;20100;-84
2022/04/16 12:50:23;;;;;;;0.30;0.30;;;16.20;71.00;;;;;;4957263;28;20485;-82
2022/04/16 12:52:50;;;;;;;0.30;0.30;;;16.30;70.10;;;;;;4957035;28;20058;-83
2022/04/16 12:55:22;;;;;;;0.30;0.30;;;16.40;60.70;;;;;;4960822;28;20172;-83
2022/04/16 12:57:48;;;;;;;0.35;0.35;;;16.30;53.90;;;;;;4940617;28;20054;-85
2022/04/16 13:00:14;;;;;;;;;;;16.40;67.20;;;;;;4974604;28;20034;-86
2022/04/16 13:02:42;;;;;;;0.40;0.40;;;16.60;70.80;;;;;;4970978;28;19918;-81
2022/04/16 13:05:17;;;;;;;0.40;0.40;;;16.70;63.20;;;;;;4971780;28;20055;-85
2022/04/16 13:07:44;;;;;;;0.40;0.40;;;16.90;68.40;;;;;;4954869;29;20043;-83
2022/04/16 13:10:12;;;;;;;0.40;0.40;;;17.00;63.10;;;;;;4974252;28;20122;-87
2022/04/16 13:12:38;;;;;;;0.35;0.35;;;17.20;64.20;;;;;;4959681;28;20364;-87
2022/04/16 13:15:09;;;;;;;0.35;0.35;;;17.40;67.20;;;;;;4974083;28;20256;-83
2022/04/16 13:17:36;;;;;;;0.30;0.30;;;17.70;65.10;;;;;;4972894;28;20244;-84
2022/04/16 13:20:03;;;;;;;0.35;0.35;;;18.00;63.30;;;;;;4957794;28;20333;-85
2022/04/16 13:22:32;;;;;;;0.30;0.30;;;18.10;75.70;;;;;;4957289;28;20497;-84
2022/04/16 13:24:58;;;;;;;0.30;0.30;;;18.30;64.00;;;;;;4974227;28;20121;-85
2022/04/16 13:27:24;;;;;;;0.20;0.20;;;18.60;67.90;;;;;;4975493;28;20065;-83